createdAt,value
2018-11-07T00:00:17.168Z,23.67
2018-11-07T00:02:45.589Z,27.37
2018-11-07T00:05:14.611Z,28.40
2018-11-07T00:07:42.278Z,27.57
2018-11-07T00:10:10.013Z,28.43
2018-11-07T00:12:38.025Z,29.40
2018-11-07T00:15:08.506Z,28.33
2018-11-07T00:17:36.173Z,28.30
2018-11-07T00:20:05.449Z,27.53
2018-11-07T00:22:33.217Z,30.00
2018-11-07T00:25:00.894Z,27.60
2018-11-07T00:27:28.612Z,22.93
2018-11-07T00:29:56.419Z,17.57
2018-11-07T00:32:24.033Z,28.20
2018-11-07T00:34:51.741Z,21.37
2018-11-07T00:37:19.407Z,27.97
2018-11-07T00:39:47.357Z,29.20
2018-11-07T00:42:15.132Z,27.90
2018-11-07T00:44:42.825Z,18.27
2018-11-07T00:47:10.590Z,27.20
2018-11-07T00:49:38.305Z,16.77
2018-11-07T00:52:06.018Z,27.53
2018-11-07T00:54:33.758Z,28.67
2018-11-07T00:57:01.514Z,27.57
2018-11-07T00:59:29.240Z,27.40
2018-11-07T01:01:56.952Z,29.53
2018-11-07T01:04:24.604Z,28.43
2018-11-07T01:06:52.325Z,18.50
2018-11-07T01:09:20.093Z,17.07
2018-11-07T01:11:47.782Z,22.07
2018-11-07T01:14:15.494Z,17.33
2018-11-07T01:16:43.190Z,27.43
2018-11-07T01:19:10.823Z,27.47
2018-11-07T01:21:38.473Z,28.50
2018-11-07T01:24:06.398Z,29.63
2018-11-07T01:26:34.225Z,29.07
2018-11-07T01:29:01.920Z,28.17
2018-11-07T01:31:29.938Z,28.30
2018-11-07T01:33:57.808Z,29.13
2018-11-07T01:36:25.668Z,28.30
2018-11-07T01:38:53.307Z,29.47
2018-11-07T01:41:24.299Z,29.90
2018-11-07T01:43:52.089Z,30.00
2018-11-07T01:46:19.779Z,30.63
2018-11-07T01:48:47.548Z,32.53
2018-11-07T01:51:15.306Z,31.90
2018-11-07T01:53:43.185Z,29.80
2018-11-07T01:56:11.121Z,30.77
2018-11-07T01:58:39.114Z,29.30
2018-11-07T02:01:07.146Z,30.23
2018-11-07T02:03:35.730Z,30.40
2018-11-07T02:06:03.636Z,30.23
2018-11-07T02:08:31.605Z,29.87
2018-11-07T02:11:00.183Z,29.43
2018-11-07T02:13:28.141Z,28.70
2018-11-07T02:15:55.940Z,26.70
2018-11-07T02:18:23.684Z,27.33
2018-11-07T02:20:51.428Z,27.73
2018-11-07T02:23:19.137Z,25.83
2018-11-07T02:25:47.192Z,25.90
2018-11-07T02:28:14.933Z,25.57
2018-11-07T02:30:42.606Z,25.07
2018-11-07T02:33:10.349Z,23.97
2018-11-07T02:35:38.033Z,25.17
2018-11-07T02:38:05.693Z,26.33
2018-11-07T02:40:33.413Z,25.77
2018-11-07T02:43:01.285Z,25.27
2018-11-07T02:45:28.979Z,28.23
2018-11-07T02:47:56.751Z,26.77
2018-11-07T02:50:24.420Z,27.23
2018-11-07T02:52:52.109Z,27.70
2018-11-07T02:55:19.769Z,25.17
2018-11-07T02:57:47.469Z,25.20
2018-11-07T03:00:15.265Z,24.43
2018-11-07T03:02:42.992Z,26.63
2018-11-07T03:05:10.726Z,28.53
2018-11-07T03:07:39.407Z,24.97
2018-11-07T03:10:09.774Z,27.20
2018-11-07T03:12:37.825Z,27.20
2018-11-07T03:15:06.080Z,27.53
2018-11-07T03:17:33.796Z,28.63
2018-11-07T03:20:01.478Z,29.50
2018-11-07T03:22:29.209Z,28.60
2018-11-07T03:24:56.946Z,32.20
2018-11-07T03:27:28.624Z,26.23
2018-11-07T03:29:56.297Z,28.43
2018-11-07T03:32:24.022Z,25.30
2018-11-07T03:34:51.745Z,25.07
2018-11-07T03:37:19.479Z,27.37
2018-11-07T03:39:47.212Z,26.00
2018-11-07T03:42:14.998Z,22.50
2018-11-07T03:44:42.691Z,27.50
2018-11-07T03:47:10.414Z,27.30
2018-11-07T03:49:38.216Z,24.97
2018-11-07T03:52:05.902Z,27.00
2018-11-07T03:54:33.604Z,26.20
2018-11-07T03:57:01.393Z,31.10
2018-11-07T03:59:29.119Z,27.20
2018-11-07T04:01:56.763Z,29.40
2018-11-07T04:04:24.399Z,30.37
2018-11-07T04:06:52.125Z,30.87
2018-11-07T04:09:19.917Z,34.50
2018-11-07T04:11:47.650Z,25.60
2018-11-07T04:14:15.281Z,27.93
2018-11-07T04:16:43.053Z,30.30
2018-11-07T04:19:10.785Z,29.67
2018-11-07T04:21:38.864Z,32.47
2018-11-07T04:24:06.529Z,32.17
2018-11-07T04:26:36.352Z,29.57
2018-11-07T04:29:04.324Z,28.93
2018-11-07T04:31:32.036Z,25.83
2018-11-07T04:33:59.852Z,27.03
2018-11-07T04:36:27.558Z,25.80
2018-11-07T04:38:55.588Z,30.43
2018-11-07T04:41:23.585Z,28.13
2018-11-07T04:43:51.300Z,22.17
2018-11-07T04:46:19.039Z,27.60
2018-11-07T04:48:46.788Z,28.13
2018-11-07T04:53:42.609Z,23.07
2018-11-07T04:56:10.608Z,27.40
2018-11-07T04:58:38.324Z,26.17
2018-11-07T05:01:06.545Z,27.73
2018-11-07T05:03:34.740Z,29.33
2018-11-07T05:06:02.449Z,30.97
2018-11-07T05:08:30.172Z,34.23
2018-11-07T05:10:57.868Z,37.77
2018-11-07T05:13:29.759Z,32.17
2018-11-07T05:15:57.508Z,33.43
2018-11-07T05:18:25.150Z,33.57
2018-11-07T05:20:52.829Z,25.43
2018-11-07T05:23:20.580Z,31.60
2018-11-07T05:25:48.330Z,24.40
2018-11-07T05:28:16.070Z,23.13
2018-11-07T05:30:43.717Z,25.00
2018-11-07T05:33:11.460Z,28.97
2018-11-07T05:35:39.132Z,26.03
2018-11-07T05:38:06.874Z,22.50
2018-11-07T05:40:34.585Z,27.63
2018-11-07T05:43:02.252Z,22.43
2018-11-07T05:45:30.008Z,22.20
2018-11-07T05:47:57.756Z,18.07
2018-11-07T05:50:25.452Z,22.43
2018-11-07T05:52:53.157Z,22.30
2018-11-07T05:55:20.833Z,21.57
2018-11-07T05:57:52.126Z,19.70
2018-11-07T06:00:19.849Z,22.73
2018-11-07T06:02:47.533Z,20.83
2018-11-07T06:05:15.177Z,25.50
2018-11-07T06:07:42.873Z,19.90
2018-11-07T06:10:11.903Z,28.70
2018-11-07T06:12:40.173Z,22.60
2018-11-07T06:15:09.148Z,24.67
2018-11-07T06:17:36.900Z,20.03
2018-11-07T06:20:05.573Z,26.30
2018-11-07T06:22:33.260Z,25.93
2018-11-07T06:25:01.196Z,23.97
2018-11-07T06:27:28.689Z,20.40
2018-11-07T06:29:56.360Z,22.43
2018-11-07T06:32:24.112Z,21.77
2018-11-07T06:34:51.841Z,24.00
2018-11-07T06:37:20.017Z,23.53
2018-11-07T06:39:47.717Z,23.00
2018-11-07T06:42:15.454Z,25.03
2018-11-07T06:44:43.172Z,27.90
2018-11-07T06:47:10.909Z,29.50
2018-11-07T06:49:38.716Z,23.33
2018-11-07T06:52:06.398Z,24.67
2018-11-07T06:54:34.084Z,25.27
2018-11-07T06:57:01.789Z,23.93
2018-11-07T06:59:29.445Z,20.27
2018-11-07T07:01:57.157Z,23.07
2018-11-07T07:04:24.914Z,22.30
2018-11-07T07:06:52.621Z,23.40
2018-11-07T07:09:20.323Z,23.33
2018-11-07T07:11:48.005Z,22.90
2018-11-07T07:14:15.685Z,23.13
2018-11-07T07:16:43.449Z,21.30
2018-11-07T07:19:11.189Z,22.23
2018-11-07T07:21:38.969Z,23.83
2018-11-07T07:24:06.690Z,22.90
2018-11-07T07:26:34.422Z,92.27
2018-11-07T07:29:02.227Z,25.53
2018-11-07T07:31:29.945Z,26.27
2018-11-07T07:33:57.692Z,25.13
2018-11-07T07:36:25.444Z,23.63
2018-11-07T07:38:53.157Z,27.37
2018-11-07T07:41:20.895Z,28.47
2018-11-07T07:43:48.617Z,36.63
2018-11-07T07:46:16.269Z,39.87
2018-11-07T07:48:44.132Z,37.87
2018-11-07T07:51:11.854Z,38.47
2018-11-07T07:53:39.564Z,34.60
2018-11-07T07:56:07.318Z,39.07
2018-11-07T07:58:34.984Z,37.93
2018-11-07T08:01:02.749Z,33.37
2018-11-07T08:03:30.548Z,47.78
2018-11-07T08:05:58.288Z,36.30
2018-11-07T08:08:25.980Z,38.63
2018-11-07T08:10:53.720Z,35.33
2018-11-07T08:13:21.523Z,42.57
2018-11-07T08:15:50.159Z,43.97
2018-11-07T08:18:17.833Z,49.57
2018-11-07T08:20:45.500Z,41.47
2018-11-07T08:23:13.169Z,37.93
2018-11-07T08:25:40.827Z,38.33
2018-11-07T08:28:08.552Z,37.87
2018-11-07T08:30:36.248Z,36.87
2018-11-07T08:33:04.393Z,37.60
2018-11-07T08:35:32.097Z,33.97
2018-11-07T08:38:00.049Z,31.53
2018-11-07T08:40:27.744Z,32.27
2018-11-07T08:42:56.500Z,31.23
2018-11-07T08:45:24.229Z,26.83
2018-11-07T08:47:51.944Z,27.47
2018-11-07T08:50:20.399Z,27.17
2018-11-07T08:52:48.476Z,24.30
2018-11-07T08:55:21.268Z,25.13
2018-11-07T08:57:48.968Z,23.23
2018-11-07T09:00:17.956Z,23.27
2018-11-07T09:02:45.900Z,17.73
2018-11-07T09:05:14.421Z,21.53
2018-11-07T09:07:42.797Z,24.27
2018-11-07T09:10:11.673Z,24.53
2018-11-07T09:12:39.554Z,19.43
2018-11-07T09:15:11.889Z,21.40
2018-11-07T09:17:39.620Z,20.70
2018-11-07T09:20:09.970Z,20.90
2018-11-07T09:22:37.816Z,20.93
2018-11-07T09:25:05.957Z,19.17
2018-11-07T09:27:33.578Z,19.07
2018-11-07T09:30:01.279Z,21.70
2018-11-07T09:32:28.951Z,18.73
2018-11-07T09:34:57.418Z,17.57
2018-11-07T09:37:25.989Z,18.13
2018-11-07T09:39:54.833Z,16.20
2018-11-07T09:42:23.356Z,18.57
2018-11-07T09:44:51.683Z,18.50
2018-11-07T09:47:19.922Z,16.67
2018-11-07T09:49:48.273Z,17.67
2018-11-07T09:52:17.381Z,18.93
2018-11-07T09:54:45.735Z,19.30
2018-11-07T09:57:14.325Z,18.77
2018-11-07T09:59:42.837Z,17.73
2018-11-07T10:02:10.857Z,16.20
2018-11-07T10:04:39.276Z,16.17
2018-11-07T10:07:07.089Z,15.43
2018-11-07T10:09:35.703Z,13.40
2018-11-07T10:12:04.741Z,14.87
2018-11-07T10:14:33.179Z,16.03
2018-11-07T10:17:01.029Z,14.90
2018-11-07T10:19:29.060Z,15.70
2018-11-07T10:21:57.389Z,16.53
2018-11-07T10:24:26.285Z,16.60
2018-11-07T10:26:55.197Z,15.83
2018-11-07T10:29:24.127Z,14.77
2018-11-07T10:31:54.113Z,15.73
2018-11-07T10:34:22.954Z,15.60
2018-11-07T10:36:51.541Z,15.77
2018-11-07T10:39:20.224Z,14.20
2018-11-07T10:41:48.752Z,15.03
2018-11-07T10:44:17.000Z,13.47
2018-11-07T10:46:44.713Z,13.57
2018-11-07T10:49:12.841Z,13.13
2018-11-07T10:51:41.278Z,11.60
2018-11-07T10:54:10.158Z,12.00
2018-11-07T10:56:38.952Z,11.43
2018-11-07T10:59:07.457Z,12.37
2018-11-07T11:01:41.403Z,10.17
2018-11-07T11:04:10.324Z,11.20
2018-11-07T11:06:38.973Z,10.93
2018-11-07T11:09:07.818Z,11.23
2018-11-07T11:11:35.975Z,10.70
2018-11-07T11:14:04.556Z,10.53
2018-11-07T11:16:33.290Z,10.77
2018-11-07T11:19:02.006Z,11.80
2018-11-07T11:21:30.248Z,10.87
2018-11-07T11:23:58.732Z,10.77
2018-11-07T11:26:26.483Z,10.93
2018-11-07T11:28:54.274Z,10.00
2018-11-07T11:31:22.493Z,10.60
2018-11-07T11:33:50.804Z,10.97
2018-11-07T11:36:20.251Z,10.23
2018-11-07T11:38:49.980Z,10.80
2018-11-07T11:41:18.243Z,10.60
2018-11-07T11:43:45.950Z,10.23
2018-11-07T11:46:14.897Z,10.23
2018-11-07T11:48:43.401Z,10.17
2018-11-07T11:51:11.708Z,9.97
2018-11-07T11:53:39.775Z,10.50
2018-11-07T11:56:07.999Z,10.07
2018-11-07T11:58:36.368Z,10.13
2018-11-07T12:01:05.757Z,9.33
2018-11-07T12:03:33.821Z,8.73
2018-11-07T12:06:02.137Z,9.67
2018-11-07T12:08:31.109Z,10.27
2018-11-07T12:10:59.093Z,9.67
2018-11-07T12:13:28.317Z,10.27
2018-11-07T12:15:56.442Z,9.97
2018-11-07T12:18:24.887Z,8.50
2018-11-07T12:20:53.137Z,9.53
2018-11-07T12:23:21.386Z,9.90
2018-11-07T12:25:49.609Z,9.00
2018-11-07T12:28:18.020Z,8.23
2018-11-07T12:30:46.257Z,9.00
2018-11-07T12:33:14.519Z,8.13
2018-11-07T12:35:43.046Z,8.80
2018-11-07T12:38:11.320Z,9.07
2018-11-07T12:40:39.754Z,8.87
2018-11-07T12:43:07.870Z,8.80
2018-11-07T12:45:36.221Z,6.37
2018-11-07T12:48:04.405Z,7.83
2018-11-07T12:50:32.145Z,8.33
2018-11-07T12:52:59.750Z,8.37
2018-11-07T12:55:27.398Z,6.50
2018-11-07T12:57:55.158Z,8.07
2018-11-07T13:00:24.012Z,9.03
2018-11-07T13:02:51.860Z,8.03
2018-11-07T13:05:20.438Z,8.93
2018-11-07T13:07:48.946Z,8.80
2018-11-07T13:10:17.993Z,7.90
2018-11-07T13:12:46.233Z,8.07
2018-11-07T13:15:14.733Z,8.00
2018-11-07T13:17:42.656Z,7.73
2018-11-07T13:20:15.237Z,7.87
2018-11-07T13:22:44.062Z,7.43
2018-11-07T13:25:12.353Z,7.80
2018-11-07T13:27:40.084Z,6.97
2018-11-07T13:30:13.721Z,6.13
2018-11-07T13:32:41.661Z,6.43
2018-11-07T13:35:10.280Z,5.23
2018-11-07T13:37:38.934Z,6.10
2018-11-07T13:40:10.033Z,6.10
2018-11-07T13:42:37.700Z,6.60
2018-11-07T13:45:09.366Z,5.93
2018-11-07T13:47:37.418Z,7.70
2018-11-07T13:50:05.110Z,6.40
2018-11-07T13:52:32.852Z,6.47
2018-11-07T13:55:00.922Z,6.47
2018-11-07T13:57:28.554Z,5.93
2018-11-07T13:59:56.238Z,6.67
2018-11-07T14:02:23.986Z,6.37
2018-11-07T14:04:51.677Z,5.60
2018-11-07T14:07:19.361Z,4.53
2018-11-07T14:09:47.140Z,5.87
2018-11-07T14:12:14.914Z,5.87
2018-11-07T14:14:42.688Z,6.47
2018-11-07T14:17:10.542Z,6.07
2018-11-07T14:19:38.913Z,5.33
2018-11-07T14:22:06.636Z,5.10
2018-11-07T14:24:34.392Z,6.90
2018-11-07T14:27:02.153Z,5.47
2018-11-07T14:29:29.890Z,6.80
2018-11-07T14:31:57.817Z,6.03
2018-11-07T14:34:25.789Z,5.73
2018-11-07T14:36:53.573Z,6.33
2018-11-07T14:39:21.229Z,5.13
2018-11-07T14:41:48.972Z,6.90
2018-11-07T14:44:16.724Z,5.07
2018-11-07T14:46:44.462Z,6.20
2018-11-07T14:49:12.240Z,6.13
2018-11-07T14:51:39.980Z,5.60
2018-11-07T14:54:07.637Z,6.07
2018-11-07T14:56:35.288Z,7.00
2018-11-07T14:59:03.029Z,5.67
2018-11-07T15:01:30.732Z,5.27
2018-11-07T15:03:58.489Z,4.40
2018-11-07T15:06:26.258Z,4.73
2018-11-07T15:08:53.990Z,3.90
2018-11-07T15:11:21.825Z,4.20
2018-11-07T15:13:49.627Z,4.20
2018-11-07T15:16:17.348Z,5.00
2018-11-07T15:18:48.686Z,5.13
2018-11-07T15:21:17.476Z,6.23
2018-11-07T15:23:45.919Z,8.60
2018-11-07T15:26:13.668Z,6.83
2018-11-07T15:28:41.443Z,6.53
2018-11-07T15:31:09.153Z,6.90
2018-11-07T15:33:38.520Z,8.00
2018-11-07T15:36:06.386Z,9.10
2018-11-07T15:38:34.093Z,8.00
2018-11-07T15:41:01.902Z,8.40
2018-11-07T15:43:29.729Z,8.43
2018-11-07T15:45:57.458Z,8.73
2018-11-07T15:48:25.075Z,9.43
2018-11-07T15:50:58.663Z,10.10
2018-11-07T15:53:26.381Z,8.70
2018-11-07T15:55:54.061Z,9.57
2018-11-07T15:58:23.076Z,10.60
2018-11-07T16:00:51.789Z,10.63
2018-11-07T16:03:25.284Z,11.37
2018-11-07T16:05:53.054Z,10.20
2018-11-07T16:08:20.740Z,9.73
2018-11-07T16:10:48.393Z,9.00
2018-11-07T16:13:16.208Z,9.13
2018-11-07T16:15:44.648Z,9.80
2018-11-07T16:18:13.605Z,9.80
2018-11-07T16:20:43.920Z,11.40
2018-11-07T16:23:11.577Z,16.00
2018-11-07T16:25:39.350Z,17.73
2018-11-07T16:28:07.106Z,14.83
2018-11-07T16:30:34.865Z,32.93
2018-11-07T16:33:02.553Z,42.90
2018-11-07T16:35:30.328Z,41.87
2018-11-07T16:37:58.091Z,36.43
2018-11-07T16:40:25.918Z,41.43
2018-11-07T16:42:53.669Z,43.03
2018-11-07T16:45:21.414Z,37.20
2018-11-07T16:47:49.171Z,36.13
2018-11-07T16:50:17.520Z,33.50
2018-11-07T16:52:45.259Z,25.93
2018-11-07T16:55:13.471Z,23.20
2018-11-07T16:57:41.268Z,14.17
2018-11-07T17:00:14.092Z,15.63
2018-11-07T17:02:42.654Z,16.97
2018-11-07T17:05:11.193Z,16.07
2018-11-07T17:07:39.297Z,13.60
2018-11-07T17:10:08.008Z,15.93
2018-11-07T17:12:35.993Z,11.20
2018-11-07T17:15:03.785Z,8.23
2018-11-07T17:17:31.520Z,9.27
2018-11-07T17:19:59.362Z,8.50
2018-11-07T17:22:27.285Z,16.00
2018-11-07T17:24:55.809Z,8.67
2018-11-07T17:27:23.728Z,9.10
2018-11-07T17:29:51.524Z,8.70
2018-11-07T17:32:19.254Z,9.63
2018-11-07T17:34:47.021Z,8.77
2018-11-07T17:37:14.813Z,8.40
2018-11-07T17:39:42.509Z,6.50
2018-11-07T17:42:10.225Z,6.40
2018-11-07T17:44:39.249Z,7.33
2018-11-07T17:47:07.888Z,9.20
2018-11-07T17:49:35.660Z,8.27
2018-11-07T17:52:03.384Z,7.03
2018-11-07T17:54:31.085Z,6.67
2018-11-07T17:56:59.366Z,5.57
2018-11-07T17:59:27.201Z,4.00
2018-11-07T18:01:55.019Z,8.47
2018-11-07T18:04:22.834Z,7.73
2018-11-07T18:06:50.508Z,7.20
2018-11-07T18:09:18.289Z,7.37
2018-11-07T18:11:46.060Z,6.97
2018-11-07T18:14:13.817Z,6.33
2018-11-07T18:16:41.627Z,5.67
2018-11-07T18:19:09.981Z,6.30
2018-11-07T18:21:37.821Z,5.87
2018-11-07T18:24:05.633Z,8.00
2018-11-07T18:26:33.491Z,6.60
2018-11-07T18:29:01.265Z,6.20
2018-11-07T18:31:29.592Z,7.10
2018-11-07T18:33:57.337Z,8.40
2018-11-07T18:36:25.162Z,6.30
2018-11-07T18:38:52.909Z,6.83
2018-11-07T18:41:20.637Z,7.07
2018-11-07T18:43:48.372Z,6.70
2018-11-07T18:46:16.083Z,7.83
2018-11-07T18:48:43.750Z,8.13
2018-11-07T18:51:11.431Z,9.53
2018-11-07T18:53:39.160Z,7.87
2018-11-07T18:56:06.838Z,9.07
2018-11-07T18:58:34.672Z,8.47
2018-11-07T19:01:02.361Z,8.53
2018-11-07T19:03:30.062Z,6.97
2018-11-07T19:05:57.820Z,7.67
2018-11-07T19:08:25.564Z,6.07
2018-11-07T19:10:53.301Z,5.43
2018-11-07T19:13:21.021Z,6.57
2018-11-07T19:15:48.679Z,7.50
2018-11-07T19:18:16.475Z,6.40
2018-11-07T19:20:44.221Z,7.90
2018-11-07T19:23:11.969Z,7.03
2018-11-07T19:25:39.777Z,7.83
2018-11-07T19:28:08.098Z,7.27
2018-11-07T19:30:36.834Z,8.60
2018-11-07T19:33:06.282Z,5.70
2018-11-07T19:35:34.373Z,10.30
2018-11-07T19:38:02.485Z,10.60
2018-11-07T19:40:31.453Z,14.63
2018-11-07T19:42:59.393Z,11.60
2018-11-07T19:45:27.769Z,10.43
2018-11-07T19:47:55.549Z,9.70
2018-11-07T19:50:24.577Z,10.73
2018-11-07T19:52:53.134Z,9.77
2018-11-07T19:55:23.089Z,6.03
2018-11-07T19:57:55.344Z,9.07
2018-11-07T20:00:24.305Z,8.63
2018-11-07T20:02:52.228Z,6.43
2018-11-07T20:05:20.001Z,7.67
2018-11-07T20:07:47.677Z,8.87
2018-11-07T20:10:16.841Z,9.17
2018-11-07T20:12:44.530Z,9.57
2018-11-07T20:15:13.446Z,9.30
2018-11-07T20:17:41.312Z,7.77
2018-11-07T20:20:09.325Z,8.00
2018-11-07T20:22:37.132Z,8.80
2018-11-07T20:25:06.456Z,7.23
2018-11-07T20:27:34.250Z,8.07
2018-11-07T20:30:02.024Z,7.43
2018-11-07T20:32:29.765Z,7.37
2018-11-07T20:34:57.632Z,7.13
2018-11-07T20:37:25.560Z,7.93
2018-11-07T20:39:53.256Z,7.30
2018-11-07T20:42:20.945Z,6.60
2018-11-07T20:44:48.613Z,6.73
2018-11-07T20:47:16.305Z,6.93
2018-11-07T20:49:44.239Z,6.97
2018-11-07T20:52:11.945Z,7.60
2018-11-07T20:54:39.788Z,6.90
2018-11-07T20:57:07.412Z,6.50
2018-11-07T20:59:35.545Z,5.67
2018-11-07T21:02:03.657Z,5.37
2018-11-07T21:04:31.430Z,5.57
2018-11-07T21:06:59.196Z,6.30
2018-11-07T21:09:27.031Z,6.57
2018-11-07T21:11:54.776Z,5.67
2018-11-07T21:14:22.459Z,5.90
2018-11-07T21:16:50.211Z,7.00
2018-11-07T21:19:17.944Z,6.33
2018-11-07T21:21:45.601Z,4.40
2018-11-07T21:24:17.183Z,5.40
2018-11-07T21:26:45.024Z,5.73
2018-11-07T21:29:12.748Z,5.43
2018-11-07T21:31:40.460Z,6.37
2018-11-07T21:34:08.224Z,6.37
2018-11-07T21:36:35.905Z,5.67
2018-11-07T21:39:07.180Z,6.23
2018-11-07T21:41:35.261Z,5.93
2018-11-07T21:44:03.113Z,6.17
2018-11-07T21:46:30.880Z,5.47
2018-11-07T21:48:58.648Z,5.60
2018-11-07T21:51:26.643Z,5.43
2018-11-07T21:53:54.360Z,5.00
2018-11-07T21:56:22.231Z,5.03
2018-11-07T21:58:50.035Z,5.50
2018-11-07T22:01:17.700Z,5.53
2018-11-07T22:03:45.464Z,5.93
2018-11-07T22:06:13.134Z,5.70
2018-11-07T22:08:40.965Z,5.20
2018-11-07T22:11:08.656Z,6.33
2018-11-07T22:13:36.364Z,5.77
2018-11-07T22:16:04.440Z,5.27
2018-11-07T22:18:32.107Z,5.83
2018-11-07T22:21:00.135Z,6.80
2018-11-07T22:23:29.109Z,6.30
2018-11-07T22:25:56.865Z,5.43
2018-11-07T22:28:24.577Z,5.47
2018-11-07T22:30:52.314Z,5.20
2018-11-07T22:33:20.062Z,4.87
2018-11-07T22:35:47.831Z,5.03
2018-11-07T22:38:15.542Z,7.07
2018-11-07T22:40:43.261Z,6.60
2018-11-07T22:43:11.049Z,7.30
2018-11-07T22:45:38.813Z,7.33
2018-11-07T22:48:06.602Z,6.93
2018-11-07T22:50:35.138Z,7.87
2018-11-07T22:53:02.860Z,7.90
2018-11-07T22:55:30.545Z,7.33
2018-11-07T22:57:58.225Z,7.60
2018-11-07T23:00:31.709Z,7.40
2018-11-07T23:02:59.443Z,6.60
2018-11-07T23:05:27.144Z,8.03
2018-11-07T23:07:54.933Z,8.17
2018-11-07T23:10:22.604Z,8.87
2018-11-07T23:12:50.612Z,8.10
2018-11-07T23:15:24.148Z,9.03
2018-11-07T23:17:51.869Z,8.13
2018-11-07T23:20:19.585Z,9.47
2018-11-07T23:22:47.303Z,8.73
2018-11-07T23:25:14.977Z,8.93
2018-11-07T23:27:42.818Z,8.80
2018-11-07T23:30:10.537Z,9.77
2018-11-07T23:32:38.378Z,7.97
2018-11-07T23:35:06.501Z,8.37
2018-11-07T23:37:34.238Z,8.53
2018-11-07T23:40:01.993Z,8.40
2018-11-07T23:42:29.721Z,8.73
2018-11-07T23:44:57.460Z,8.30
2018-11-07T23:47:25.206Z,9.20
2018-11-07T23:49:52.876Z,8.80
2018-11-07T23:52:26.280Z,8.23
2018-11-07T23:54:54.014Z,9.20
2018-11-07T23:57:21.796Z,8.60
2018-11-07T23:59:49.431Z,8.33
